Time;durP1;ratioP1;P1;durP2;ratioP2;P2;SDS_P1;SDS_P2;PMS_P1;PMS_P2;Temp;Humidity;BMP_temperature;BMP_pressure;BME280_temperature;BME280_humidity;BME280_pressure;Samples;Min_cycle;Max_cycle;Signal;HPM_P1;HPM_P2
2023/08/23 00:00:11;;;;;;;4.85;4.30;;;;;;;20.92;64.46;93832.03;513852;28;864;-47
2023/08/23 00:00:26;;;;;;;5.47;4.53;;;;;;;20.91;64.53;93833.38;513789;28;850;-46
2023/08/23 00:00:42;;;;;;;4.85;4.38;;;;;;;20.91;64.47;93827.78;513729;28;1025;-46
2023/08/23 00:00:57;;;;;;;4.63;4.23;;;;;;;20.90;64.52;93833.97;512747;28;1914;-46
2023/08/23 00:01:12;;;;;;;4.90;4.35;;;;;;;20.89;64.58;93832.53;511779;28;1031;-46
2023/08/23 00:01:28;;;;;;;5.03;4.37;;;;;;;20.89;64.55;93830.47;513163;28;1513;-46
2023/08/23 00:01:43;;;;;;;5.13;4.63;;;;;;;20.90;64.68;93831.16;513701;28;861;-46
2023/08/23 00:01:59;;;;;;;5.22;4.72;;;;;;;20.88;64.65;93825.44;513817;28;1477;-46
2023/08/23 00:02:14;;;;;;;5.33;4.83;;;;;;;20.88;64.49;93831.78;513808;28;785;-46
2023/08/23 00:02:29;;;;;;;5.43;4.93;;;;;;;20.87;64.51;93830.34;513721;28;878;-47
2023/08/23 00:02:45;;;;;;;5.70;5.20;;;;;;;20.87;64.86;93835.94;513852;28;919;-45
2023/08/23 00:03:00;;;;;;;5.57;5.07;;;;;;;20.86;64.99;93828.84;513756;28;809;-47
2023/08/23 00:03:15;;;;;;;5.43;4.93;;;;;;;20.85;64.99;93835.84;513833;28;787;-47
2023/08/23 00:03:31;;;;;;;5.57;5.07;;;;;;;20.84;64.90;93825.19;513693;28;864;-46
2023/08/23 00:03:46;;;;;;;5.22;4.72;;;;;;;20.85;64.89;93829.47;513703;28;1709;-47
2023/08/23 00:04:01;;;;;;;5.20;4.70;;;;;;;20.85;64.78;93833.03;513822;28;781;-45
2023/08/23 00:04:19;;;;;;;5.57;5.03;;;;;;;20.85;64.75;93832.28;513042;28;1751;-46
2023/08/23 00:04:35;;;;;;;5.68;5.07;;;;;;;20.83;64.82;93829.34;513712;28;955;-47
2023/08/23 00:04:50;;;;;;;5.50;5.00;;;;;;;20.83;64.88;93823.75;512323;28;813;-47
2023/08/23 00:05:06;;;;;;;5.78;5.20;;;;;;;20.82;64.92;93825.81;511877;28;777;-45
2023/08/23 00:05:22;;;;;;;5.35;4.85;;;;;;;20.83;64.98;93823.75;513340;28;1139;-47
2023/08/23 00:05:37;;;;;;;5.50;4.83;;;;;;;20.83;65.06;93832.16;513828;28;809;-46
2023/08/23 00:05:52;;;;;;;6.28;5.40;;;;;;;20.82;65.07;93828.63;513791;28;834;-47
2023/08/23 00:06:08;;;;;;;6.07;5.43;;;;;;;20.82;65.10;93825.81;513845;28;896;-47
2023/08/23 00:06:23;;;;;;;6.33;5.27;;;;;;;20.82;65.06;93833.50;513426;28;1516;-46
2023/08/23 00:06:39;;;;;;;6.45;5.57;;;;;;;20.83;64.94;93834.97;513851;28;912;-45
2023/08/23 00:06:54;;;;;;;6.30;5.70;;;;;;;20.82;64.94;93823.00;513539;28;1144;-48
2023/08/23 00:07:09;;;;;;;6.07;5.47;;;;;;;20.81;64.82;93829.94;513883;28;785;-45
2023/08/23 00:07:25;;;;;;;6.10;5.25;;;;;;;20.71;64.80;93817.34;513828;28;781;-46
2023/08/23 00:07:40;;;;;;;6.43;5.17;;;;;;;20.81;64.80;93829.94;513794;28;814;-46
2023/08/23 00:07:55;;;;;;;5.87;5.20;;;;;;;20.81;64.86;93829.22;513852;28;867;-46
2023/08/23 00:08:11;;;;;;;5.93;5.32;;;;;;;20.80;64.83;93828.50;513648;28;1253;-46
2023/08/23 00:08:26;;;;;;;6.10;5.40;;;;;;;20.80;64.88;93831.28;513768;28;845;-46
2023/08/23 00:08:41;;;;;;;6.03;5.20;;;;;;;20.79;64.92;93824.19;512375;28;1795;-47
2023/08/23 00:08:57;;;;;;;5.63;5.00;;;;;;;20.77;64.89;93832.50;513804;28;828;-47
2023/08/23 00:09:13;;;;;;;5.50;5.00;;;;;;;20.76;64.83;93824.69;511826;28;912;-47
2023/08/23 00:09:29;;;;;;;5.97;5.35;;;;;;;20.66;64.87;93807.25;513291;28;1051;-47
2023/08/23 00:09:44;;;;;;;6.18;5.38;;;;;;;20.74;64.95;93827.38;513675;28;953;-47
2023/08/23 00:09:59;;;;;;;5.63;5.03;;;;;;;20.73;65.03;93829.44;513845;28;1141;-47
2023/08/23 00:10:15;;;;;;;5.70;5.10;;;;;;;20.73;65.05;93829.44;513815;28;856;-47
2023/08/23 00:10:30;;;;;;;6.00;5.40;;;;;;;20.73;65.02;93828.72;513768;28;831;-47
2023/08/23 00:10:52;;;;;;;5.93;5.33;;;;;;;20.71;64.99;93829.31;513817;28;826;-46
2023/08/23 00:11:08;;;;;;;6.72;5.70;;;;;;;20.72;65.06;93830.81;513580;28;1751;-47
2023/08/23 00:11:23;;;;;;;7.40;5.90;;;;;;;20.71;65.01;93826.50;513037;28;1075;-46
2023/08/23 00:11:38;;;;;;;6.78;5.75;;;;;;;20.72;65.02;93827.25;513778;28;1546;-47
2023/08/23 00:11:54;;;;;;;6.23;5.40;;;;;;;20.72;65.06;93824.44;511834;28;881;-46
2023/08/23 00:12:09;;;;;;;6.68;5.60;;;;;;;20.70;65.09;93830.69;511848;29;786;-46
2023/08/23 00:12:25;;;;;;;7.18;6.07;;;;;;;20.71;65.13;93831.38;513562;28;849;-46
2023/08/23 00:12:40;;;;;;;6.83;6.07;;;;;;;20.70;65.10;93827.13;513784;28;1214;-47
2023/08/23 00:12:56;;;;;;;6.33;5.73;;;;;;;20.70;65.24;93833.47;513918;28;893;-48
2023/08/23 00:13:11;;;;;;;6.25;5.63;;;;;;;20.69;65.26;93829.19;513749;28;853;-46
2023/08/23 00:13:27;;;;;;;6.85;5.70;;;;;;;20.69;65.23;93825.66;513777;28;920;-47
2023/08/23 00:13:42;;;;;;;7.80;6.10;;;;;;;20.70;65.33;93827.13;513714;28;805;-47
2023/08/23 00:13:58;;;;;;;7.63;6.00;;;;;;;20.68;65.38;93827.72;512897;28;1787;-46
2023/08/23 00:14:13;;;;;;;6.93;5.80;;;;;;;20.68;65.43;93824.19;513085;28;1040;-47
2023/08/23 00:14:29;;;;;;;7.17;5.90;;;;;;;20.66;65.43;93824.78;513775;28;845;-48
2023/08/23 00:14:44;;;;;;;9.10;5.75;;;;;;;20.67;65.48;93826.25;513819;28;785;-46
2023/08/23 00:14:59;;;;;;;9.03;5.93;;;;;;;20.67;65.42;93823.47;513786;28;819;-48
2023/08/23 00:15:16;;;;;;;6.97;6.03;;;;;;;20.67;65.54;93822.72;513871;28;856;-48
2023/08/23 00:15:31;;;;;;;6.57;5.70;;;;;;;20.66;65.64;93830.41;513734;28;811;-47
2023/08/23 00:15:47;;;;;;;6.03;5.40;;;;;;;20.66;65.74;93816.38;513722;28;1203;-46
2023/08/23 00:16:02;;;;;;;6.03;5.43;;;;;;;20.65;65.93;93823.34;513690;28;876;-51
2023/08/23 00:16:17;;;;;;;6.43;5.67;;;;;;;20.64;65.86;93819.06;513810;28;862;-47
2023/08/23 00:16:33;;;;;;;9.67;6.00;;;;;;;20.63;65.93;93825.28;513684;28;848;-47
2023/08/23 00:16:48;;;;;;;9.85;6.30;;;;;;;20.63;65.91;93822.47;513842;28;793;-48
2023/08/23 00:17:03;;;;;;;7.30;6.40;;;;;;;20.63;65.89;93819.66;513805;28;830;-48
2023/08/23 00:17:19;;;;;;;7.23;6.10;;;;;;;20.64;65.63;93824.66;513736;28;1076;-47
2023/08/23 00:17:34;;;;;;;6.60;5.82;;;;;;;20.64;65.91;93829.56;513803;28;865;-47
2023/08/23 00:17:50;;;;;;;6.30;5.70;;;;;;;20.64;65.88;93823.94;513761;28;781;-46
2023/08/23 00:18:05;;;;;;;6.78;6.07;;;;;;;20.63;65.70;93826.00;513803;28;922;-47
2023/08/23 00:18:21;;;;;;;6.90;6.20;;;;;;;20.64;65.79;93830.28;513052;28;1271;-47
2023/08/23 00:18:36;;;;;;;6.87;5.93;;;;;;;20.63;65.91;93830.88;512634;28;1679;-47
2023/08/23 00:18:51;;;;;;;7.05;6.10;;;;;;;20.63;65.91;93825.28;513623;28;1372;-47
2023/08/23 00:19:07;;;;;;;6.33;5.73;;;;;;;20.63;65.85;93826.00;512656;28;975;-47
2023/08/23 00:19:22;;;;;;;6.97;5.63;;;;;;;20.63;65.84;93828.81;512355;28;1580;-47
2023/08/23 00:19:37;;;;;;;7.47;5.88;;;;;;;20.63;65.94;93828.09;513756;28;835;-46
2023/08/23 00:19:54;;;;;;;6.73;5.97;;;;;;;20.62;66.10;93821.03;513760;28;1066;-46
2023/08/23 00:20:10;;;;;;;6.55;5.78;;;;;;;20.59;66.23;93822.22;513843;28;1077;-48
2023/08/23 00:20:25;;;;;;;6.38;5.43;;;;;;;20.60;66.20;93824.41;513742;28;896;-47
2023/08/23 00:20:41;;;;;;;6.47;5.57;;;;;;;20.59;66.14;93828.56;513732;28;964;-48
2023/08/23 00:20:56;;;;;;;7.13;5.55;;;;;;;20.59;66.13;93825.03;513722;28;1922;-47
2023/08/23 00:21:11;;;;;;;8.10;5.70;;;;;;;20.59;66.14;93825.03;513758;28;893;-47
2023/08/23 00:21:27;;;;;;;7.55;5.75;;;;;;;20.59;66.11;93822.97;513673;28;1551;-47
2023/08/23 00:21:43;;;;;;;6.53;5.75;;;;;;;20.60;66.12;93821.59;513753;28;886;-47
2023/08/23 00:21:58;;;;;;;6.60;5.90;;;;;;;20.61;66.13;93834.31;513888;28;884;-46
2023/08/23 00:22:14;;;;;;;6.50;5.82;;;;;;;20.60;66.26;93824.41;513810;28;782;-47
2023/08/23 00:22:29;;;;;;;6.23;5.63;;;;;;;20.60;66.09;93821.59;513801;28;1359;-48
2023/08/23 00:22:45;;;;;;;6.13;5.53;;;;;;;20.61;66.07;93822.34;513818;28;927;-49
2023/08/23 00:23:00;;;;;;;6.43;5.72;;;;;;;20.60;65.97;93823.69;513508;28;1486;-48
2023/08/23 00:23:15;;;;;;;6.27;5.37;;;;;;;20.61;66.11;93823.09;513108;28;1083;-50
2023/08/23 00:23:31;;;;;;;6.13;5.10;;;;;;;20.61;66.19;93825.16;513523;28;819;-47
2023/08/23 00:23:46;;;;;;;5.75;5.15;;;;;;;20.61;66.29;93825.88;511698;28;867;-47
2023/08/23 00:24:01;;;;;;;5.17;4.73;;;;;;;20.61;66.39;93825.16;511746;28;988;-47
2023/08/23 00:24:19;;;;;;;5.70;5.20;;;;;;;20.55;66.42;93816.34;513686;28;765;-47
2023/08/23 00:24:34;;;;;;;6.13;5.53;;;;;;;20.61;66.25;93825.16;513362;28;1076;-47
2023/08/23 00:24:49;;;;;;;5.90;5.07;;;;;;;20.61;66.18;93827.97;513808;28;853;-47
2023/08/23 00:25:05;;;;;;;5.93;5.10;;;;;;;20.60;66.15;93824.41;513848;28;816;-47
2023/08/23 00:25:20;;;;;;;5.97;5.15;;;;;;;20.61;66.03;93830.75;513772;28;790;-48
2023/08/23 00:25:36;;;;;;;6.27;5.50;;;;;;;20.61;66.02;93825.16;513795;28;848;-48
2023/08/23 00:25:51;;;;;;;6.03;5.43;;;;;;;20.61;65.94;93822.34;513716;28;1123;-48
2023/08/23 00:26:07;;;;;;;6.15;5.55;;;;;;;20.61;66.00;93823.09;513800;28;852;-46
2023/08/23 00:26:22;;;;;;;6.40;5.80;;;;;;;20.62;66.05;93823.81;512830;28;1500;-48
2023/08/23 00:26:37;;;;;;;6.70;6.00;;;;;;;20.62;65.85;93821.03;513233;28;919;-48
2023/08/23 00:26:54;;;;;;;7.25;5.95;;;;;;;20.62;65.86;93826.63;513151;28;1818;-48
2023/08/23 00:27:09;;;;;;;7.20;5.20;;;;;;;20.62;65.88;93824.53;511914;28;827;-48
2023/08/23 00:27:25;;;;;;;5.50;4.70;;;;;;;20.63;65.97;93828.81;513537;28;1043;-47
2023/08/23 00:27:40;;;;;;;5.43;4.93;;;;;;;20.62;65.94;93824.53;513678;28;1009;-48
2023/08/23 00:27:55;;;;;;;5.57;5.07;;;;;;;20.62;65.92;93827.34;513729;28;786;-48
2023/08/23 00:28:11;;;;;;;5.35;4.85;;;;;;;20.63;65.91;93817.59;513762;28;943;-48
2023/08/23 00:28:26;;;;;;;5.43;4.90;;;;;;;20.64;65.90;93829.56;513685;28;844;-48
2023/08/23 00:28:42;;;;;;;5.73;5.13;;;;;;;20.63;65.83;93826.00;513732;28;900;-50
2023/08/23 00:28:57;;;;;;;5.50;5.00;;;;;;;20.63;65.79;93831.63;513677;28;1067;-47
2023/08/23 00:29:13;;;;;;;5.60;4.83;;;;;;;20.62;65.84;93824.53;513792;28;857;-47
2023/08/23 00:29:28;;;;;;;5.47;4.72;;;;;;;20.63;65.62;93828.09;512874;28;1699;-47
2023/08/23 00:29:44;;;;;;;5.50;4.93;;;;;;;20.64;65.79;93826.75;512846;28;940;-47
2023/08/23 00:29:59;;;;;;;6.20;5.32;;;;;;;20.63;65.67;93828.09;512546;28;825;-48
2023/08/23 00:30:14;;;;;;;5.70;4.97;;;;;;;20.63;65.52;93826.00;511830;28;809;-47
2023/08/23 00:30:30;;;;;;;5.13;4.37;;;;;;;20.63;65.40;93825.28;512391;28;825;-47
2023/08/23 00:30:52;;;;;;;4.73;4.13;;;;;;;20.59;65.39;93834.19;511818;28;852;-48
2023/08/23 00:31:07;;;;;;;5.00;4.53;;;;;;;20.58;65.29;93821.47;511752;28;1098;-48
2023/08/23 00:31:23;;;;;;;4.93;4.43;;;;;;;20.58;65.37;93827.09;512446;28;852;-48
2023/08/23 00:31:38;;;;;;;5.00;4.27;;;;;;;20.58;65.30;93829.91;513742;28;874;-50
2023/08/23 00:31:54;;;;;;;5.00;3.85;;;;;;;20.58;65.38;93829.91;513690;28;1020;-47
2023/08/23 00:32:09;;;;;;;4.57;3.73;;;;;;;20.59;65.33;93822.22;513846;28;786;-49
2023/08/23 00:32:24;;;;;;;4.50;4.00;;;;;;;20.58;65.18;93829.16;513825;28;796;-48
2023/08/23 00:32:40;;;;;;;5.75;3.92;;;;;;;20.59;65.29;93827.84;513781;28;844;-47
2023/08/23 00:32:55;;;;;;;5.30;4.10;;;;;;;20.59;65.21;93828.56;513336;28;1794;-47
2023/08/23 00:33:10;;;;;;;4.77;4.37;;;;;;;20.59;65.17;93825.75;513243;28;1113;-48
2023/08/23 00:33:26;;;;;;;4.63;4.22;;;;;;;20.60;65.11;93823.69;513991;28;1092;-47
2023/08/23 00:33:41;;;;;;;5.03;4.63;;;;;;;20.59;65.10;93825.03;514022;28;879;-48
2023/08/23 00:33:57;;;;;;;5.60;5.10;;;;;;;20.61;65.05;93827.97;514196;28;872;-47
2023/08/23 00:34:12;;;;;;;5.38;4.85;;;;;;;20.59;65.05;93825.03;514082;28;862;-48
2023/08/23 00:34:27;;;;;;;4.97;4.47;;;;;;;20.59;64.85;93827.84;514138;28;923;-49
2023/08/23 00:34:43;;;;;;;4.87;4.33;;;;;;;20.58;64.89;93827.09;514103;28;1115;-47
2023/08/23 00:34:58;;;;;;;5.00;4.40;;;;;;;20.58;64.81;93824.28;513704;28;1138;-47
2023/08/23 00:35:13;;;;;;;4.77;4.23;;;;;;;20.57;64.73;93825.63;512159;28;853;-47
2023/08/23 00:35:29;;;;;;;4.63;4.17;;;;;;;20.57;64.72;93828.44;513316;28;1669;-48
2023/08/23 00:35:44;;;;;;;4.63;4.22;;;;;;;20.54;64.76;93824.03;512805;28;809;-48
2023/08/23 00:35:59;;;;;;;5.10;4.23;;;;;;;20.56;64.58;93826.22;513953;28;803;-46
2023/08/23 00:36:15;;;;;;;5.93;4.17;;;;;;;20.57;64.65;93828.44;512215;28;774;-47
2023/08/23 00:36:30;;;;;;;5.47;4.38;;;;;;;20.56;64.54;93823.41;513692;28;981;-47
2023/08/23 00:36:46;;;;;;;4.70;4.30;;;;;;;20.54;64.54;93826.84;512133;28;889;-48
2023/08/23 00:37:02;;;;;;;5.55;4.10;;;;;;;20.54;64.70;93834.53;512103;28;934;-47
2023/08/23 00:37:17;;;;;;;5.72;4.10;;;;;;;20.53;64.65;93825.38;512237;28;824;-47
2023/08/23 00:37:33;;;;;;;5.10;4.03;;;;;;;20.53;64.67;93827.47;514128;28;797;-47
2023/08/23 00:37:48;;;;;;;5.00;4.27;;;;;;;20.52;64.70;93823.91;514070;28;971;-48
2023/08/23 00:38:03;;;;;;;5.10;4.60;;;;;;;20.52;64.67;93821.09;513974;28;1125;-48
2023/08/23 00:38:19;;;;;;;5.10;4.60;;;;;;;20.51;64.76;93822.44;513048;28;1806;-48
2023/08/23 00:38:34;;;;;;;4.80;4.30;;;;;;;20.51;64.82;93832.94;514088;28;832;-48
2023/08/23 00:38:49;;;;;;;4.78;4.28;;;;;;;20.50;64.84;93820.25;512614;28;898;-49
2023/08/23 00:39:05;;;;;;;4.83;4.43;;;;;;;20.50;64.63;93820.97;512238;28;836;-48
2023/08/23 00:39:20;;;;;;;5.00;4.60;;;;;;;20.50;64.61;93823.03;513355;28;947;-47
2023/08/23 00:39:35;;;;;;;5.07;4.57;;;;;;;20.48;64.48;93829.28;514061;28;1107;-48
2023/08/23 00:39:51;;;;;;;4.63;4.13;;;;;;;20.48;64.63;93822.91;514071;28;914;-48
2023/08/23 00:40:10;;;;;;;4.50;4.10;;;;;;;20.46;64.60;93817.94;514189;28;1546;-47
2023/08/23 00:40:25;;;;;;;4.65;4.25;;;;;;;20.47;64.65;93822.19;514017;28;2322;-48
2023/08/23 00:40:40;;;;;;;4.80;4.37;;;;;;;20.46;64.73;93825.59;514083;28;923;-47
2023/08/23 00:40:56;;;;;;;5.10;4.60;;;;;;;20.46;64.57;93820.72;514060;28;1923;-47
2023/08/23 00:41:12;;;;;;;5.00;4.38;;;;;;;20.46;64.75;93825.59;514112;28;866;-48
2023/08/23 00:41:27;;;;;;;4.80;4.30;;;;;;;20.46;64.68;93820.72;514166;28;951;-47
2023/08/23 00:41:44;;;;;;;4.80;4.30;;;;;;;20.44;64.70;93820.59;513382;28;1771;-48
2023/08/23 00:41:59;;;;;;;4.68;4.28;;;;;;;20.44;64.78;93820.59;513184;28;951;-47
2023/08/23 00:42:15;;;;;;;4.97;4.50;;;;;;;20.44;64.75;93820.59;512608;28;848;-47
2023/08/23 00:42:30;;;;;;;5.13;4.63;;;;;;;20.44;64.79;93820.59;511782;29;1227;-48
2023/08/23 00:42:45;;;;;;;4.57;4.17;;;;;;;20.43;64.83;93821.94;511919;29;909;-47
2023/08/23 00:43:01;;;;;;;5.20;4.00;;;;;;;20.44;64.79;93822.66;512004;28;869;-47
2023/08/23 00:43:16;;;;;;;5.50;4.43;;;;;;;20.45;64.78;93824.13;512022;29;797;-47
2023/08/23 00:43:32;;;;;;;5.20;4.70;;;;;;;20.45;64.72;93824.13;511885;29;861;-50
2023/08/23 00:43:47;;;;;;;5.47;4.57;;;;;;;20.44;64.79;93822.66;511923;29;924;-49
2023/08/23 00:44:03;;;;;;;4.95;4.45;;;;;;;20.43;64.86;93819.13;512032;28;1108;-47
2023/08/23 00:44:19;;;;;;;4.90;4.43;;;;;;;20.44;64.87;93825.47;513935;28;920;-48
2023/08/23 00:44:34;;;;;;;5.20;4.30;;;;;;;20.43;64.86;93816.31;514088;28;938;-48
2023/08/23 00:44:49;;;;;;;4.65;4.15;;;;;;;20.44;64.78;93817.06;514076;28;927;-47
2023/08/23 00:45:05;;;;;;;4.47;4.07;;;;;;;20.42;64.83;93818.38;513574;28;1787;-47
2023/08/23 00:45:20;;;;;;;4.30;3.90;;;;;;;20.43;64.80;93821.94;512972;28;880;-47
2023/08/23 00:45:36;;;;;;;4.47;4.07;;;;;;;20.42;64.86;93818.38;514063;28;1195;-49
2023/08/23 00:45:52;;;;;;;5.15;4.60;;;;;;;20.42;64.95;93820.47;514083;28;849;-47
2023/08/23 00:46:08;;;;;;;5.30;4.32;;;;;;;20.41;64.99;93830.22;514198;28;829;-48
2023/08/23 00:46:24;;;;;;;5.33;4.07;;;;;;;20.40;64.95;93814.72;514047;28;992;-47
2023/08/23 00:46:39;;;;;;;5.68;4.50;;;;;;;20.41;65.06;93824.59;516045;28;857;-48
2023/08/23 00:46:54;;;;;;;5.70;4.77;;;;;;;20.40;65.06;93820.31;515959;28;1126;-47
2023/08/23 00:47:10;;;;;;;5.15;4.65;;;;;;;20.40;65.00;93825.94;516004;28;781;-47
2023/08/23 00:47:25;;;;;;;4.87;4.40;;;;;;;20.40;65.07;93823.88;515940;28;1136;-46
2023/08/23 00:47:41;;;;;;;4.70;4.20;;;;;;;20.39;65.13;93816.81;513875;28;919;-48
2023/08/23 00:47:56;;;;;;;4.90;4.30;;;;;;;20.39;65.11;93821.69;514009;28;891;-48
2023/08/23 00:48:12;;;;;;;5.83;4.27;;;;;;;20.38;65.10;93823.00;513993;28;786;-47
2023/08/23 00:48:28;;;;;;;5.93;4.10;;;;;;;20.37;65.15;93822.28;513795;28;1035;-47
2023/08/23 00:48:44;;;;;;;4.72;4.25;;;;;;;20.38;65.10;93823.00;513878;28;869;-47
2023/08/23 00:49:00;;;;;;;4.63;4.18;;;;;;;20.38;65.09;93823.75;513983;28;906;-47
2023/08/23 00:49:15;;;;;;;5.25;4.53;;;;;;;20.38;65.02;93817.38;513678;28;1703;-46
2023/08/23 00:49:34;;;;;;;4.73;4.30;;;;;;;20.39;65.03;93830.09;513893;28;779;-46
2023/08/23 00:49:49;;;;;;;4.63;4.23;;;;;;;20.38;65.11;93823.00;513908;28;1171;-45
2023/08/23 00:50:05;;;;;;;4.70;4.30;;;;;;;20.38;64.93;93820.19;510396;29;1357;-46
2023/08/23 00:50:21;;;;;;;4.43;3.90;;;;;;;20.37;64.93;93827.16;511305;28;1558;-47
2023/08/23 00:50:38;;;;;;;4.60;4.13;;;;;;;20.36;64.87;93831.28;511597;29;1512;-46
2023/08/23 00:50:53;;;;;;;5.07;4.60;;;;;;;20.35;64.86;93824.22;510058;29;875;-48
2023/08/23 00:51:09;;;;;;;4.97;4.53;;;;;;;20.34;64.80;93831.16;509985;29;842;-47
2023/08/23 00:51:25;;;;;;;4.65;4.25;;;;;;;20.34;64.80;93825.56;509978;29;915;-49
2023/08/23 00:51:41;;;;;;;4.60;4.20;;;;;;;20.33;64.86;93827.66;509954;29;850;-47
2023/08/23 00:51:56;;;;;;;4.60;4.18;;;;;;;20.32;64.74;93828.97;510696;29;1159;-47
2023/08/23 00:52:12;;;;;;;5.03;4.38;;;;;;;20.32;64.73;93825.44;511625;28;1736;-48
2023/08/23 00:52:27;;;;;;;5.07;4.40;;;;;;;20.31;64.66;93829.59;511320;28;865;-46
2023/08/23 00:52:42;;;;;;;4.37;3.97;;;;;;;20.30;64.82;93828.84;510268;29;940;-47
2023/08/23 00:52:58;;;;;;;4.35;3.80;;;;;;;20.31;64.87;93829.59;512073;29;770;-49
2023/08/23 00:53:14;;;;;;;4.45;4.05;;;;;;;20.28;64.74;93820.31;512217;28;924;-46
2023/08/23 00:53:29;;;;;;;4.63;4.20;;;;;;;20.29;64.97;93824.56;512293;28;919;-46
2023/08/23 00:53:46;;;;;;;5.15;4.22;;;;;;;20.30;64.84;93823.22;509815;29;841;-47
2023/08/23 00:54:02;;;;;;;4.80;4.25;;;;;;;20.29;64.82;93824.56;510047;29;861;-47
2023/08/23 00:54:18;;;;;;;4.53;4.07;;;;;;;20.29;65.02;93826.66;510012;29;882;-48
2023/08/23 00:54:33;;;;;;;4.82;4.22;;;;;;;20.28;64.78;93828.72;512597;28;852;-47
2023/08/23 00:54:48;;;;;;;5.03;4.50;;;;;;;20.26;64.89;93819.44;513879;28;1155;-47
2023/08/23 00:55:04;;;;;;;5.10;4.60;;;;;;;20.28;65.00;93827.97;513993;28;833;-48
2023/08/23 00:55:20;;;;;;;5.03;4.53;;;;;;;20.26;64.98;93827.84;513940;28;829;-47
2023/08/23 00:55:36;;;;;;;5.40;4.53;;;;;;;20.25;65.07;93831.97;512057;29;869;-47
2023/08/23 00:55:51;;;;;;;6.28;4.30;;;;;;;20.25;65.22;93820.75;511917;29;774;-47
2023/08/23 00:56:06;;;;;;;5.57;4.10;;;;;;;20.24;65.29;93824.91;512029;28;806;-47
2023/08/23 00:56:22;;;;;;;4.73;4.20;;;;;;;20.23;65.33;93823.44;512492;28;1059;-47
2023/08/23 00:56:38;;;;;;;4.63;4.13;;;;;;;20.23;65.33;93826.97;512027;28;755;-47
2023/08/23 00:56:55;;;;;;;4.82;4.32;;;;;;;20.22;65.38;93825.53;510351;28;1847;-46
2023/08/23 00:57:11;;;;;;;7.30;4.68;;;;;;;20.20;65.61;93822.59;510005;29;917;-47
2023/08/23 00:57:27;;;;;;;7.87;5.00;;;;;;;20.20;65.51;93819.78;510295;29;776;-47
2023/08/23 00:57:42;;;;;;;4.82;4.38;;;;;;;20.17;65.66;93823.75;510598;29;802;-46
2023/08/23 00:57:57;;;;;;;4.43;4.03;;;;;;;20.15;65.86;93826.44;511910;28;1095;-46
2023/08/23 00:58:13;;;;;;;6.20;4.60;;;;;;;20.14;65.97;93827.06;511962;28;770;-46
2023/08/23 00:58:28;;;;;;;6.37;4.53;;;;;;;20.05;66.00;93808.22;513970;28;874;-48
2023/08/23 00:58:44;;;;;;;5.07;4.50;;;;;;;20.13;66.08;93823.50;511861;29;898;-46
2023/08/23 00:58:59;;;;;;;4.90;4.40;;;;;;;20.13;66.03;93828.38;509869;29;845;-49
2023/08/23 00:59:15;;;;;;;4.68;4.07;;;;;;;20.14;66.00;93821.44;508397;28;770;-47
2023/08/23 00:59:31;;;;;;;4.50;3.97;;;;;;;20.12;65.96;93826.91;511557;29;1123;-47
2023/08/23 00:59:47;;;;;;;4.68;4.20;;;;;;;20.11;66.09;93814.97;511967;29;1090;-47
2023/08/23 01:00:03;;;;;;;4.85;4.00;;;;;;;20.11;66.07;93825.44;511906;29;841;-48
2023/08/23 01:00:19;;;;;;;4.43;3.95;;;;;;;20.10;66.11;93823.97;512508;28;1664;-46
2023/08/23 01:00:34;;;;;;;4.93;4.43;;;;;;;20.10;66.27;93821.16;513981;28;786;-46
2023/08/23 01:00:49;;;;;;;5.57;5.07;;;;;;;20.08;66.41;93821.75;513551;28;1743;-47
2023/08/23 01:01:05;;;;;;;5.43;4.93;;;;;;;20.09;66.31;93828.13;514802;28;1984;-48
2023/08/23 01:01:20;;;;;;;5.50;4.60;;;;;;;20.09;66.31;93822.50;515920;28;883;-48
2023/08/23 01:01:35;;;;;;;5.37;4.57;;;;;;;20.08;66.27;93823.84;515912;28;953;-47
2023/08/23 01:01:51;;;;;;;5.10;4.60;;;;;;;20.06;66.38;93813.22;515737;28;880;-49
2023/08/23 01:02:07;;;;;;;5.25;4.80;;;;;;;20.06;66.37;93818.84;516045;28;817;-49
2023/08/23 01:02:23;;;;;;;5.00;4.50;;;;;;;20.07;66.46;93819.56;515797;28;1266;-47
2023/08/23 01:02:38;;;;;;;5.20;4.32;;;;;;;20.06;66.48;93823.69;516019;28;801;-49
2023/08/23 01:02:53;;;;;;;5.33;4.57;;;;;;;20.05;66.57;93819.44;515487;28;864;-49
2023/08/23 01:03:09;;;;;;;5.10;4.60;;;;;;;20.05;66.56;93819.44;512015;29;1569;-47
2023/08/23 01:03:24;;;;;;;5.90;4.30;;;;;;;20.05;66.49;93822.25;512779;28;892;-48
2023/08/23 01:03:39;;;;;;;6.23;4.40;;;;;;;20.05;66.70;93827.84;513952;28;817;-48
2023/08/23 01:03:57;;;;;;;5.83;5.10;;;;;;;20.04;66.70;93829.91;514191;28;1131;-49
2023/08/23 01:04:12;;;;;;;6.22;5.00;;;;;;;20.02;66.65;93821.38;515422;28;1710;-48
2023/08/23 01:04:28;;;;;;;5.63;4.53;;;;;;;20.03;66.87;93819.31;515134;28;824;-49
2023/08/23 01:04:43;;;;;;;5.97;4.47;;;;;;;20.04;66.95;93820.78;513917;28;904;-51
2023/08/23 01:04:58;;;;;;;6.53;4.55;;;;;;;20.02;67.01;93815.78;513574;28;873;-48
2023/08/23 01:05:15;;;;;;;6.07;4.43;;;;;;;20.03;67.02;93822.13;512160;28;904;-47
2023/08/23 01:05:47;;;;;;;5.47;4.53;;;;;;;20.03;66.95;93819.31;513782;28;977;-48
2023/08/23 01:06:06;;;;;;;5.88;4.63;;;;;;;20.01;66.83;93825.50;514033;28;884;-48
2023/08/23 01:06:52;;;;;;;5.65;4.65;;;;;;;20.00;66.84;93821.25;513781;28;1142;-50
2023/08/23 01:07:18;;;;;;;5.18;4.60;;;;;;;20.00;66.92;93823.31;512612;28;948;-48
2023/08/23 01:07:40;;;;;;;5.45;4.78;;;;;;;19.99;66.93;93825.38;515896;28;924;-47
2023/08/23 01:08:16;;;;;;;4.88;4.43;;;;;;;19.99;66.89;93824.66;513819;28;1192;-47
2023/08/23 01:08:40;;;;;;;4.93;4.43;;;;;;;19.99;66.78;93819.06;511714;29;1041;-48
2023/08/23 01:09:20;;;;;;;4.72;4.22;;;;;;;19.98;66.59;93826.00;511908;29;851;-48
2023/08/23 01:10:02;;;;;;;4.35;3.92;;;;;;;19.98;66.71;93820.38;511389;29;1740;-47
2023/08/23 01:10:28;;;;;;;6.50;4.55;;;;;;;19.99;66.60;93824.66;511961;28;881;-47
2023/08/23 01:10:51;;;;;;;4.72;4.32;;;;;;;19.99;66.61;93824.66;513435;28;1063;-48
2023/08/23 01:11:25;;;;;;;5.15;4.65;;;;;;;19.98;66.54;93828.78;513876;28;813;-48
2023/08/23 01:12:05;;;;;;;4.90;4.40;;;;;;;19.98;66.55;93828.78;512632;28;864;-48
2023/08/23 01:12:30;;;;;;;6.10;5.03;;;;;;;19.97;66.50;93828.06;513302;28;1715;-47
2023/08/23 01:12:53;;;;;;;5.45;4.65;;;;;;;19.97;66.44;93828.06;512733;28;894;-48
2023/08/23 01:13:11;;;;;;;5.90;4.65;;;;;;;19.96;66.51;93831.47;513930;28;987;-48
2023/08/23 01:13:48;;;;;;;4.85;4.32;;;;;;;19.96;66.61;93826.59;513103;28;980;-47
2023/08/23 01:14:15;;;;;;;6.15;5.13;;;;;;;19.95;66.92;93825.13;513786;28;1660;-48
2023/08/23 01:14:55;;;;;;;4.85;4.35;;;;;;;19.95;66.81;93827.19;511816;29;909;-48
2023/08/23 01:15:12;;;;;;;4.50;4.10;;;;;;;19.94;66.87;93822.94;510817;29;939;-49
2023/08/23 01:15:29;;;;;;;5.05;4.57;;;;;;;19.95;66.63;93830.72;510018;29;860;-47
2023/08/23 01:15:45;;;;;;;5.10;4.60;;;;;;;19.96;66.88;93825.84;507931;29;843;-47
2023/08/23 01:16:01;;;;;;;4.88;4.40;;;;;;;19.94;66.72;93823.66;509445;29;857;-48
2023/08/23 01:16:18;;;;;;;4.88;4.35;;;;;;;19.94;66.82;93828.53;509897;29;939;-47
2023/08/23 01:16:34;;;;;;;4.82;4.32;;;;;;;19.94;66.96;93822.94;511686;29;919;-48
2023/08/23 01:16:50;;;;;;;4.93;4.47;;;;;;;19.93;66.90;93821.44;511867;28;1155;-51
2023/08/23 01:17:06;;;;;;;5.10;4.60;;;;;;;19.92;66.97;93825.59;511910;28;844;-48
2023/08/23 01:17:21;;;;;;;5.03;4.53;;;;;;;19.91;67.19;93821.31;509951;29;898;-48
2023/08/23 01:17:42;;;;;;;4.40;4.00;;;;;;;19.92;67.26;93829.13;509914;29;877;-48
2023/08/23 01:17:58;;;;;;;4.82;4.22;;;;;;;19.93;67.30;93829.84;511468;29;846;-49
2023/08/23 01:18:14;;;;;;;4.63;4.13;;;;;;;19.93;67.39;93822.19;509888;29;1085;-47
2023/08/23 01:18:30;;;;;;;5.05;4.50;;;;;;;19.92;67.35;93825.59;508839;29;1662;-47
2023/08/23 01:18:46;;;;;;;5.78;4.90;;;;;;;19.91;67.38;93815.72;509888;29;885;-47
2023/08/23 01:19:09;;;;;;;6.63;5.10;;;;;;;19.92;67.33;93820.00;509377;29;1577;-48
2023/08/23 01:19:30;;;;;;;5.18;4.28;;;;;;;19.92;67.33;93825.59;511499;29;888;-47
2023/08/23 01:19:47;;;;;;;5.43;4.43;;;;;;;19.91;67.36;93822.06;511796;28;1197;-47
2023/08/23 01:20:03;;;;;;;5.75;4.93;;;;;;;19.91;67.29;93819.25;512312;28;860;-49
2023/08/23 01:20:19;;;;;;;5.25;4.63;;;;;;;19.91;67.19;93819.25;511968;29;888;-47
2023/08/23 01:20:35;;;;;;;5.70;4.93;;;;;;;19.91;67.25;93819.25;509944;29;795;-48
2023/08/23 01:20:52;;;;;;;5.63;4.90;;;;;;;19.90;67.29;93823.41;508395;29;789;-48
2023/08/23 01:21:09;;;;;;;5.35;4.60;;;;;;;19.91;67.22;93827.66;510387;29;854;-47